Time;durP1;ratioP1;P1;durP2;ratioP2;P2;SDS_P1;SDS_P2;PMS_P1;PMS_P2;Temp;Humidity;BMP_temperature;BMP_pressure;BME280_temperature;BME280_humidity;BME280_pressure;Samples;Min_cycle;Max_cycle;Signal;HPM_P1;HPM_P2
2021/12/04 00:00:13;;;;;;;;;;;;;;;;;;994192;29;1015;-22
2021/12/04 00:00:48;;;;;;;;;;;;;;;;;;1001122;29;1395;-21
2021/12/04 00:01:24;;;;;;;;;;;;;;;;;;1005218;29;2001;-22
2021/12/04 00:01:57;;;;;;;;;;;;;;;;;;1006409;29;1106;-22
2021/12/04 00:02:27;;;;;;;;;;;;;;;;;;1009318;29;979;-22
2021/12/04 00:02:58;;;;;;;;;;;;;;;;;;1005002;29;1001;-22
2021/12/04 00:03:28;;;;;;;;;;;;;;;;;;1000964;29;1091;-22
2021/12/04 00:03:59;;;;;;;;;;;;;;;;;;1001298;29;1047;-22
2021/12/04 00:04:37;;;;;;;;;;;;;;;;;;1000750;29;1190;-22
2021/12/04 00:05:08;;;;;;;;;;;;;;;;;;1006620;29;1082;-22
2021/12/04 00:05:44;;;;;;;;;;;;;;;;;;1004502;29;1262;-22
2021/12/04 00:06:27;;;;;;;;;;;;;;;;;;1000649;29;1046;-22
2021/12/04 00:06:57;;;;;;;;;;;;;;;;;;1000423;29;1376;-22
2021/12/04 00:07:30;;;;;;;;;;;;;;;;;;1003247;29;1091;-22
2021/12/04 00:08:01;;;;;;;;;;;;;;;;;;1007138;29;1329;-22
2021/12/04 00:08:33;;;;;;;;;;;;;;;;;;1009342;29;1022;-23
2021/12/04 00:09:05;;;;;;;;;;;;;;;;;;1009976;29;930;-28
2021/12/04 00:09:36;;;;;;;;;;;;;;;;;;996510;29;1244;-22
2021/12/04 00:10:07;;;;;;;;;;;;;;;;;;997294;29;1241;-22
2021/12/04 00:10:37;;;;;;;;;;;;;;;;;;997527;29;1569;-22
2021/12/04 00:11:08;;;;;;;;;;;;;;;;;;997846;29;1356;-22
2021/12/04 00:11:41;;;;;;;;;;;;;;;;;;1013180;29;996;-22
2021/12/04 00:12:12;;;;;;;;;;;;;;;;;;1005309;29;1003;-22
2021/12/04 00:12:43;;;;;;;;;;;;;;;;;;1000792;29;1146;-22
2021/12/04 00:13:13;;;;;;;;;;;;;;;;;;989891;29;1013;-22
2021/12/04 00:13:44;;;;;;;;;;;;;;;;;;990057;29;1140;-22
2021/12/04 00:14:15;;;;;;;;;;;;;;;;;;997482;29;1159;-22
2021/12/04 00:14:46;;;;;;;;;;;;;;;;;;997124;29;1030;-22
2021/12/04 00:15:16;;;;;;;;;;;;;;;;;;1000720;29;1296;-22
2021/12/04 00:15:47;;;;;;;;;;;;;;;;;;997374;29;1144;-22
2021/12/04 00:16:18;;;;;;;;;;;;;;;;;;992925;29;1447;-22
2021/12/04 00:16:48;;;;;;;;;;;;;;;;;;993898;29;1123;-23
2021/12/04 00:17:19;;;;;;;;;;;;;;;;;;993657;29;1235;-22
2021/12/04 00:17:50;;;;;;;;;;;;;;;;;;1001106;29;1410;-22
2021/12/04 00:18:21;;;;;;;;;;;;;;;;;;1008687;29;975;-22
2021/12/04 00:18:51;;;;;;;;;;;;;;;;;;1004798;29;1198;-22
2021/12/04 00:19:22;;;;;;;;;;;;;;;;;;1000904;29;948;-22
2021/12/04 00:19:54;;;;;;;;;;;;;;;;;;1001180;29;1102;-22
2021/12/04 00:20:27;;;;;;;;;;;;;;;;;;1000369;29;1686;-22
2021/12/04 00:20:57;;;;;;;;;;;;;;;;;;1001010;29;1111;-22
2021/12/04 00:21:28;;;;;;;;;;;;;;;;;;998445;29;1970;-22
2021/12/04 00:21:59;;;;;;;;;;;;;;;;;;1000293;29;1819;-22
2021/12/04 00:22:29;;;;;;;;;;;;;;;;;;1001270;29;1157;-22
2021/12/04 00:23:00;;;;;;;;;;;;;;;;;;1000293;29;1477;-22
2021/12/04 00:23:31;;;;;;;;;;;;;;;;;;1000927;29;1200;-22
2021/12/04 00:24:02;;;;;;;;;;;;;;;;;;1001236;29;997;-22
2021/12/04 00:24:32;;;;;;;;;;;;;;;;;;1000714;29;1355;-22
2021/12/04 00:25:06;;;;;;;;;;;;;;;;;;1005118;29;1083;-22
2021/12/04 00:25:38;;;;;;;;;;;;;;;;;;1008204;29;1286;-22
2021/12/04 00:26:08;;;;;;;;;;;;;;;;;;997210;29;1377;-22
2021/12/04 00:26:39;;;;;;;;;;;;;;;;;;997208;29;1389;-22
2021/12/04 00:27:09;;;;;;;;;;;;;;;;;;992815;29;1409;-22
2021/12/04 00:27:40;;;;;;;;;;;;;;;;;;993916;29;1174;-22
2021/12/04 00:28:10;;;;;;;;;;;;;;;;;;1008981;29;1328;-21
2021/12/04 00:28:41;;;;;;;;;;;;;;;;;;1008766;29;1121;-22
2021/12/04 00:29:11;;;;;;;;;;;;;;;;;;1004778;29;1397;-22
2021/12/04 00:29:42;;;;;;;;;;;;;;;;;;996733;29;1269;-22
2021/12/04 00:30:13;;;;;;;;;;;;;;;;;;1000851;29;1125;-22
2021/12/04 00:30:46;;;;;;;;;;;;;;;;;;1001022;29;1175;-22
2021/12/04 00:31:16;;;;;;;;;;;;;;;;;;1000581;29;1008;-22
2021/12/04 00:31:54;;;;;;;;;;;;;;;;;;1001413;29;1009;-22
2021/12/04 00:32:32;;;;;;;;;;;;;;;;;;997193;29;1499;-22
2021/12/04 00:33:10;;;;;;;;;;;;;;;;;;1000895;29;1063;-22
2021/12/04 00:33:44;;;;;;;;;;;;;;;;;;1000819;29;1381;-22
2021/12/04 00:34:16;;;;;;;;;;;;;;;;;;998825;29;1326;-22
2021/12/04 00:34:54;;;;;;;;;;;;;;;;;;996678;29;1583;-21
2021/12/04 00:36:00;;;;;;;;;;;;;;;;;;1000624;29;1236;-22
2021/12/04 00:49:30;;;;;;;;;;;;;;;;;;1008545;29;1645;-22
2021/12/04 00:50:00;;;;;;;;;;;;;;;;;;1009480;29;1066;-22
2021/12/04 00:50:31;;;;;;;;;;;;;;;;;;1012625;29;1285;-22
2021/12/04 00:51:01;;;;;;;;;;;;;;;;;;1012637;29;1318;-22
2021/12/04 00:51:32;;;;;;;;;;;;;;;;;;1012510;29;1189;-22
2021/12/04 00:52:02;;;;;;;;;;;;;;;;;;1012744;29;1219;-22
2021/12/04 00:52:32;;;;;;;;;;;;;;;;;;1012698;29;1172;-22
2021/12/04 00:53:03;;;;;;;;;;;;;;;;;;1013617;29;1121;-22
2021/12/04 00:53:34;;;;;;;;;;;;;;;;;;1004641;29;1517;-22
2021/12/04 00:54:05;;;;;;;;;;;;;;;;;;1004785;29;1174;-22
2021/12/04 00:54:37;;;;;;;;;;;;;;;;;;1000987;29;992;-22
2021/12/04 00:55:08;;;;;;;;;;;;;;;;;;997915;29;1131;-22
2021/12/04 00:55:38;;;;;;;;;;;;;;;;;;1008785;29;1097;-22
2021/12/04 00:56:09;;;;;;;;;;;;;;;;;;1008420;29;1334;-23
2021/12/04 00:56:40;;;;;;;;;;;;;;;;;;1012737;29;1101;-22
2021/12/04 00:57:11;;;;;;;;;;;;;;;;;;1012656;29;1387;-22
2021/12/04 00:57:41;;;;;;;;;;;;;;;;;;1013212;29;1282;-22
2021/12/04 00:58:12;;;;;;;;;;;;;;;;;;1012615;29;1026;-22
2021/12/04 00:58:43;;;;;;;;;;;;;;;;;;1008554;29;1343;-21
2021/12/04 00:59:14;;;;;;;;;;;;;;;;;;1004543;29;1082;-22
2021/12/04 00:59:44;;;;;;;;;;;;;;;;;;1004798;29;1079;-22
2021/12/04 01:00:15;;;;;;;;;;;;;;;;;;1008395;29;1557;-22
2021/12/04 01:00:45;;;;;;;;;;;;;;;;;;1008681;29;1090;-22
2021/12/04 01:01:17;;;;;;;;;;;;;;;;;;1008928;29;1982;-22
2021/12/04 01:01:47;;;;;;;;;;;;;;;;;;1012143;29;1243;-22
2021/12/04 01:02:18;;;;;;;;;;;;;;;;;;1008886;29;1276;-22
2021/12/04 01:02:50;;;;;;;;;;;;;;;;;;1008501;29;971;-22
2021/12/04 01:03:20;;;;;;;;;;;;;;;;;;1004780;29;983;-22
2021/12/04 01:03:51;;;;;;;;;;;;;;;;;;1005263;29;881;-22
2021/12/04 01:04:22;;;;;;;;;;;;;;;;;;1000619;29;1369;-22
2021/12/04 01:04:53;;;;;;;;;;;;;;;;;;1004936;29;1097;-22
2021/12/04 01:05:23;;;;;;;;;;;;;;;;;;1000892;29;1424;-22
2021/12/04 01:05:54;;;;;;;;;;;;;;;;;;1001068;29;1170;-22
2021/12/04 01:06:24;;;;;;;;;;;;;;;;;;1008772;29;1140;-22
2021/12/04 01:06:55;;;;;;;;;;;;;;;;;;1004770;29;1090;-22
2021/12/04 01:07:26;;;;;;;;;;;;;;;;;;1004448;29;1173;-22
2021/12/04 01:07:57;;;;;;;;;;;;;;;;;;1000959;29;1152;-22
2021/12/04 01:08:27;;;;;;;;;;;;;;;;;;996941;29;1199;-21
2021/12/04 01:08:58;;;;;;;;;;;;;;;;;;997086;29;957;-22
2021/12/04 01:09:29;;;;;;;;;;;;;;;;;;1001003;29;1218;-22
2021/12/04 01:10:00;;;;;;;;;;;;;;;;;;997375;29;951;-22
2021/12/04 01:10:31;;;;;;;;;;;;;;;;;;1001153;29;1035;-22
2021/12/04 01:11:04;;;;;;;;;;;;;;;;;;1000817;29;1502;-22
2021/12/04 01:11:36;;;;;;;;;;;;;;;;;;1005012;29;1149;-22
2021/12/04 01:12:07;;;;;;;;;;;;;;;;;;1000705;29;1380;-21
2021/12/04 01:12:38;;;;;;;;;;;;;;;;;;1000751;29;1370;-22
2021/12/04 01:13:11;;;;;;;;;;;;;;;;;;1001009;29;972;-22
2021/12/04 01:13:42;;;;;;;;;;;;;;;;;;1000937;29;1370;-27
2021/12/04 01:14:14;;;;;;;;;;;;;;;;;;1005238;29;954;-22
2021/12/04 01:14:44;;;;;;;;;;;;;;;;;;1001961;29;1366;-22
2021/12/04 01:15:15;;;;;;;;;;;;;;;;;;1008772;29;1238;-22
2021/12/04 01:15:45;;;;;;;;;;;;;;;;;;1009089;29;1149;-22
2021/12/04 01:16:16;;;;;;;;;;;;;;;;;;1000816;29;972;-22
2021/12/04 01:16:47;;;;;;;;;;;;;;;;;;1009021;29;865;-22
2021/12/04 01:17:18;;;;;;;;;;;;;;;;;;1005054;29;1051;-22
2021/12/04 01:17:48;;;;;;;;;;;;;;;;;;1004643;29;1688;-22
2021/12/04 01:18:18;;;;;;;;;;;;;;;;;;1004658;29;1094;-22
2021/12/04 01:18:49;;;;;;;;;;;;;;;;;;1004871;29;1462;-22
2021/12/04 01:19:20;;;;;;;;;;;;;;;;;;1008543;29;1059;-21
2021/12/04 01:19:51;;;;;;;;;;;;;;;;;;1005199;29;1160;-22
2021/12/04 01:20:21;;;;;;;;;;;;;;;;;;1008167;29;1504;-21
2021/12/04 01:20:51;;;;;;;;;;;;;;;;;;1008707;29;1181;-22
2021/12/04 01:21:22;;;;;;;;;;;;;;;;;;1012461;29;1935;-22
2021/12/04 01:21:53;;;;;;;;;;;;;;;;;;1008497;29;1084;-21
2021/12/04 01:22:25;;;;;;;;;;;;;;;;;;1008754;29;1078;-22
2021/12/04 01:22:55;;;;;;;;;;;;;;;;;;1008110;29;1264;-22
2021/12/04 01:23:26;;;;;;;;;;;;;;;;;;1008795;29;1110;-22
2021/12/04 01:23:57;;;;;;;;;;;;;;;;;;1008596;29;1134;-22
2021/12/04 01:24:27;;;;;;;;;;;;;;;;;;1008649;29;1263;-22
2021/12/04 01:24:58;;;;;;;;;;;;;;;;;;1012670;29;1176;-22
2021/12/04 01:25:29;;;;;;;;;;;;;;;;;;1000516;29;1324;-22
2021/12/04 01:25:59;;;;;;;;;;;;;;;;;;1005001;29;1147;-22
2021/12/04 01:26:30;;;;;;;;;;;;;;;;;;1005589;29;966;-22
2021/12/04 01:27:00;;;;;;;;;;;;;;;;;;1004810;29;1201;-22
2021/12/04 01:27:31;;;;;;;;;;;;;;;;;;1014245;29;1048;-22
2021/12/04 01:28:03;;;;;;;;;;;;;;;;;;1013591;29;1109;-22
2021/12/04 01:28:34;;;;;;;;;;;;;;;;;;1013446;29;1370;-22
2021/12/04 01:29:04;;;;;;;;;;;;;;;;;;1013561;29;1208;-22
2021/12/04 01:29:35;;;;;;;;;;;;;;;;;;1012926;29;1367;-22
2021/12/04 01:30:06;;;;;;;;;;;;;;;;;;1009425;29;963;-22
2021/12/04 01:30:37;;;;;;;;;;;;;;;;;;1011269;29;1126;-22
2021/12/04 01:31:07;;;;;;;;;;;;;;;;;;1012948;29;1074;-22
2021/12/04 01:31:38;;;;;;;;;;;;;;;;;;1013484;29;1054;-22
2021/12/04 01:32:09;;;;;;;;;;;;;;;;;;1004944;29;1325;-22
2021/12/04 01:32:40;;;;;;;;;;;;;;;;;;1001788;29;1092;-22
2021/12/04 01:33:11;;;;;;;;;;;;;;;;;;997859;29;1147;-22
2021/12/04 01:33:42;;;;;;;;;;;;;;;;;;997916;29;973;-22
2021/12/04 01:34:13;;;;;;;;;;;;;;;;;;997387;29;1120;-22
2021/12/04 01:34:44;;;;;;;;;;;;;;;;;;993805;29;1406;-22
2021/12/04 01:35:14;;;;;;;;;;;;;;;;;;994104;29;1081;-22
2021/12/04 01:35:44;;;;;;;;;;;;;;;;;;994097;29;1057;-22
2021/12/04 01:36:15;;;;;;;;;;;;;;;;;;997346;29;1562;-22
2021/12/04 01:36:45;;;;;;;;;;;;;;;;;;1021206;29;1206;-22
2021/12/04 01:37:16;;;;;;;;;;;;;;;;;;1020839;29;1076;-22
2021/12/04 01:37:47;;;;;;;;;;;;;;;;;;1013201;29;1094;-22
2021/12/04 01:38:18;;;;;;;;;;;;;;;;;;1009276;29;987;-22
2021/12/04 01:38:48;;;;;;;;;;;;;;;;;;1005239;29;1551;-21
2021/12/04 01:39:19;;;;;;;;;;;;;;;;;;1005197;29;1345;-21
2021/12/04 01:39:50;;;;;;;;;;;;;;;;;;1002040;29;1042;-22
2021/12/04 01:40:21;;;;;;;;;;;;;;;;;;1001107;29;1212;-22
2021/12/04 01:40:51;;;;;;;;;;;;;;;;;;1005804;29;1015;-21
2021/12/04 01:41:22;;;;;;;;;;;;;;;;;;1001914;29;1927;-22
2021/12/04 01:41:52;;;;;;;;;;;;;;;;;;1001923;29;1047;-22
2021/12/04 01:42:23;;;;;;;;;;;;;;;;;;1009341;29;1083;-21
2021/12/04 01:42:55;;;;;;;;;;;;;;;;;;1005083;29;1202;-22
2021/12/04 01:43:25;;;;;;;;;;;;;;;;;;1005685;29;1055;-22
2021/12/04 01:43:59;;;;;;;;;;;;;;;;;;1009400;29;1037;-22
2021/12/04 01:44:29;;;;;;;;;;;;;;;;;;1006050;29;1564;-22
2021/12/04 01:45:01;;;;;;;;;;;;;;;;;;1013721;29;1214;-22
2021/12/04 01:45:31;;;;;;;;;;;;;;;;;;1008980;29;1466;-22
2021/12/04 01:46:02;;;;;;;;;;;;;;;;;;1005418;29;1003;-22
2021/12/04 01:46:34;;;;;;;;;;;;;;;;;;1001395;29;1209;-22
2021/12/04 01:47:11;;;;;;;;;;;;;;;;;;1002067;29;980;-22
2021/12/04 01:47:42;;;;;;;;;;;;;;;;;;1005627;29;1026;-21
2021/12/04 01:48:12;;;;;;;;;;;;;;;;;;1002777;29;975;-22
2021/12/04 01:48:44;;;;;;;;;;;;;;;;;;1005476;29;1068;-22
2021/12/04 01:49:14;;;;;;;;;;;;;;;;;;1001744;29;970;-22
2021/12/04 01:49:44;;;;;;;;;;;;;;;;;;1005339;29;1114;-21
2021/12/04 01:50:15;;;;;;;;;;;;;;;;;;1005393;29;1114;-22
2021/12/04 01:50:46;;;;;;;;;;;;;;;;;;1009058;29;1511;-21
2021/12/04 01:51:16;;;;;;;;;;;;;;;;;;1017356;29;1098;-22
2021/12/04 01:51:47;;;;;;;;;;;;;;;;;;1005655;29;939;-22
2021/12/04 01:52:18;;;;;;;;;;;;;;;;;;1005016;29;1055;-21
2021/12/04 01:52:48;;;;;;;;;;;;;;;;;;1009502;29;975;-22
2021/12/04 01:53:19;;;;;;;;;;;;;;;;;;1001142;29;1518;-22
2021/12/04 01:53:50;;;;;;;;;;;;;;;;;;1001750;29;1042;-22
2021/12/04 01:54:20;;;;;;;;;;;;;;;;;;1001634;29;1260;-22
2021/12/04 01:54:51;;;;;;;;;;;;;;;;;;997604;29;1111;-22
2021/12/04 01:55:30;;;;;;;;;;;;;;;;;;1009497;29;998;-22
2021/12/04 01:56:03;;;;;;;;;;;;;;;;;;1009058;29;1403;-22
2021/12/04 01:56:34;;;;;;;;;;;;;;;;;;1001345;29;1020;-22
2021/12/04 01:57:04;;;;;;;;;;;;;;;;;;997913;29;999;-22
2021/12/04 01:57:35;;;;;;;;;;;;;;;;;;998004;29;1307;-22
2021/12/04 01:58:06;;;;;;;;;;;;;;;;;;1001553;29;1092;-22
2021/12/04 01:58:37;;;;;;;;;;;;;;;;;;1006017;29;1332;-22
2021/12/04 01:59:09;;;;;;;;;;;;;;;;;;1009407;29;996;-22
2021/12/04 01:59:39;;;;;;;;;;;;;;;;;;1005949;29;992;-22
2021/12/04 02:00:10;;;;;;;;;;;;;;;;;;1008831;29;1263;-22
2021/12/04 02:00:43;;;;;;;;;;;;;;;;;;1008852;29;1438;-22
2021/12/04 02:01:13;;;;;;;;;;;;;;;;;;1010774;29;1013;-22
2021/12/04 02:01:45;;;;;;;;;;;;;;;;;;1009613;29;2268;-22
2021/12/04 02:02:16;;;;;;;;;;;;;;;;;;1001665;29;1437;-22
2021/12/04 02:02:47;;;;;;;;;;;;;;;;;;1001187;29;1379;-22
2021/12/04 02:03:18;;;;;;;;;;;;;;;;;;998008;29;1083;-22
2021/12/04 02:03:49;;;;;;;;;;;;;;;;;;1001947;29;1097;-22
2021/12/04 02:04:19;;;;;;;;;;;;;;;;;;1001374;29;1332;-21
2021/12/04 02:04:50;;;;;;;;;;;;;;;;;;1001935;29;1144;-22
2021/12/04 02:05:20;;;;;;;;;;;;;;;;;;1004842;29;1273;-22
2021/12/04 02:05:51;;;;;;;;;;;;;;;;;;1005383;29;1099;-22
2021/12/04 02:06:22;;;;;;;;;;;;;;;;;;1004895;29;1297;-22
2021/12/04 02:06:53;;;;;;;;;;;;;;;;;;1000630;29;1485;-22
2021/12/04 02:07:23;;;;;;;;;;;;;;;;;;1001515;29;1024;-22
2021/12/04 02:07:54;;;;;;;;;;;;;;;;;;1001642;29;1107;-22
2021/12/04 02:08:24;;;;;;;;;;;;;;;;;;1001389;29;1066;-22
2021/12/04 02:08:55;;;;;;;;;;;;;;;;;;1007749;29;1089;-22
2021/12/04 02:09:26;;;;;;;;;;;;;;;;;;1009265;29;1004;-22
2021/12/04 02:09:56;;;;;;;;;;;;;;;;;;1005614;29;916;-22
2021/12/04 02:10:27;;;;;;;;;;;;;;;;;;1005601;29;964;-22
2021/12/04 02:10:58;;;;;;;;;;;;;;;;;;1009144;29;1215;-22
2021/12/04 02:11:29;;;;;;;;;;;;;;;;;;1009262;29;1466;-22
2021/12/04 02:12:03;;;;;;;;;;;;;;;;;;1013295;29;1016;-21
2021/12/04 02:12:33;;;;;;;;;;;;;;;;;;1010431;29;1014;-21
2021/12/04 02:13:04;;;;;;;;;;;;;;;;;;1017517;29;989;-22
2021/12/04 02:13:36;;;;;;;;;;;;;;;;;;1008995;29;1218;-22
2021/12/04 02:14:07;;;;;;;;;;;;;;;;;;1002194;29;999;-22
2021/12/04 02:14:39;;;;;;;;;;;;;;;;;;1005252;29;1293;-22
2021/12/04 02:15:11;;;;;;;;;;;;;;;;;;994314;29;1046;-22
2021/12/04 02:15:42;;;;;;;;;;;;;;;;;;998540;29;1131;-22
2021/12/04 02:16:17;;;;;;;;;;;;;;;;;;1005426;29;1094;-22
2021/12/04 02:16:49;;;;;;;;;;;;;;;;;;999988;29;1251;-22
2021/12/04 02:17:20;;;;;;;;;;;;;;;;;;1008559;29;1400;-22
2021/12/04 02:17:50;;;;;;;;;;;;;;;;;;1009444;29;1233;-22
2021/12/04 02:18:22;;;;;;;;;;;;;;;;;;1005927;29;1007;-22
2021/12/04 02:18:52;;;;;;;;;;;;;;;;;;1004920;29;1651;-21
2021/12/04 02:19:24;;;;;;;;;;;;;;;;;;1005197;29;1086;-21
2021/12/04 02:19:54;;;;;;;;;;;;;;;;;;1005801;29;1145;-21
2021/12/04 02:20:27;;;;;;;;;;;;;;;;;;1001631;29;962;-22
2021/12/04 02:20:58;;;;;;;;;;;;;;;;;;1006532;29;1053;-22
2021/12/04 02:21:30;;;;;;;;;;;;;;;;;;1012917;29;1986;-22
2021/12/04 02:22:01;;;;;;;;;;;;;;;;;;1013775;29;1021;-22
2021/12/04 02:22:31;;;;;;;;;;;;;;;;;;1017273;29;1024;-21
2021/12/04 02:23:02;;;;;;;;;;;;;;;;;;1016919;29;1349;-22
2021/12/04 02:23:34;;;;;;;;;;;;;;;;;;1009526;29;1024;-22
2021/12/04 02:24:04;;;;;;;;;;;;;;;;;;1008960;29;1754;-22
2021/12/04 02:24:34;;;;;;;;;;;;;;;;;;1009522;29;1045;-22
2021/12/04 02:25:07;;;;;;;;;;;;;;;;;;1009458;29;942;-22
2021/12/04 02:25:38;;;;;;;;;;;;;;;;;;1013029;29;1051;-22
2021/12/04 02:26:08;;;;;;;;;;;;;;;;;;1013521;29;1371;-22
2021/12/04 02:26:39;;;;;;;;;;;;;;;;;;1004867;29;1307;-22
2021/12/04 02:27:13;;;;;;;;;;;;;;;;;;1005251;29;1174;-22
2021/12/04 02:27:45;;;;;;;;;;;;;;;;;;1001323;29;977;-22
2021/12/04 02:28:15;;;;;;;;;;;;;;;;;;990094;29;1072;-22
2021/12/04 02:28:47;;;;;;;;;;;;;;;;;;986319;30;1105;-22
2021/12/04 02:29:18;;;;;;;;;;;;;;;;;;988104;29;1287;-21
2021/12/04 02:29:49;;;;;;;;;;;;;;;;;;1001936;29;1115;-22
2021/12/04 02:30:21;;;;;;;;;;;;;;;;;;1009574;29;892;-22
2021/12/04 02:30:52;;;;;;;;;;;;;;;;;;1010061;29;1138;-22
2021/12/04 02:31:23;;;;;;;;;;;;;;;;;;1014681;29;996;-22
2021/12/04 02:31:55;;;;;;;;;;;;;;;;;;1013382;29;1019;-22
2021/12/04 02:32:28;;;;;;;;;;;;;;;;;;1008423;29;1393;-22
2021/12/04 02:32:59;;;;;;;;;;;;;;;;;;1005267;29;1076;-22
2021/12/04 02:33:30;;;;;;;;;;;;;;;;;;1000038;29;972;-22
2021/12/04 02:34:01;;;;;;;;;;;;;;;;;;993857;29;1021;-22
2021/12/04 02:34:31;;;;;;;;;;;;;;;;;;993983;29;1169;-22
2021/12/04 02:35:03;;;;;;;;;;;;;;;;;;989866;29;1312;-22
2021/12/04 02:35:33;;;;;;;;;;;;;;;;;;997740;29;1054;-22
2021/12/04 02:36:06;;;;;;;;;;;;;;;;;;998127;29;1106;-22
2021/12/04 02:36:37;;;;;;;;;;;;;;;;;;1005993;29;1048;-22
2021/12/04 02:37:09;;;;;;;;;;;;;;;;;;1012928;29;1104;-22
2021/12/04 02:37:39;;;;;;;;;;;;;;;;;;1004925;29;1174;-21
2021/12/04 02:38:11;;;;;;;;;;;;;;;;;;1005274;29;1141;-21
2021/12/04 02:38:42;;;;;;;;;;;;;;;;;;1005261;29;1058;-22
2021/12/04 02:39:23;;;;;;;;;;;;;;;;;;994052;29;995;-21
2021/12/04 02:40:00;;;;;;;;;;;;;;;;;;998042;29;967;-22
2021/12/04 02:40:30;;;;;;;;;;;;;;;;;;1001668;29;1594;-21
2021/12/04 02:41:02;;;;;;;;;;;;;;;;;;1010601;29;930;-21
2021/12/04 02:41:32;;;;;;;;;;;;;;;;;;1013304;29;1911;-22
2021/12/04 02:42:06;;;;;;;;;;;;;;;;;;1013810;29;1118;-22
2021/12/04 02:42:36;;;;;;;;;;;;;;;;;;1014028;29;968;-21
2021/12/04 02:43:06;;;;;;;;;;;;;;;;;;1013432;29;1255;-21
2021/12/04 02:43:37;;;;;;;;;;;;;;;;;;1013947;29;1041;-22
2021/12/04 02:44:08;;;;;;;;;;;;;;;;;;1016909;29;1028;-22
2021/12/04 02:44:39;;;;;;;;;;;;;;;;;;1017319;29;1143;-22
2021/12/04 02:45:11;;;;;;;;;;;;;;;;;;1012932;29;994;-22
2021/12/04 02:45:43;;;;;;;;;;;;;;;;;;1013160;29;992;-22
2021/12/04 02:46:14;;;;;;;;;;;;;;;;;;1013091;29;1011;-22
2021/12/04 02:46:45;;;;;;;;;;;;;;;;;;1009783;29;998;-22
2021/12/04 02:47:16;;;;;;;;;;;;;;;;;;1012916;29;1417;-22
2021/12/04 02:47:47;;;;;;;;;;;;;;;;;;1008918;29;1002;-22
2021/12/04 02:48:18;;;;;;;;;;;;;;;;;;1009064;29;1318;-22
2021/12/04 02:48:49;;;;;;;;;;;;;;;;;;1009142;29;1233;-22
2021/12/04 02:49:21;;;;;;;;;;;;;;;;;;1005847;29;989;-21
2021/12/04 02:49:52;;;;;;;;;;;;;;;;;;1004999;29;957;-22
2021/12/04 02:50:22;;;;;;;;;;;;;;;;;;1001334;29;999;-22
2021/12/04 02:50:53;;;;;;;;;;;;;;;;;;997065;29;1369;-22
2021/12/04 02:51:23;;;;;;;;;;;;;;;;;;997710;29;1144;-22
2021/12/04 02:51:54;;;;;;;;;;;;;;;;;;1013231;29;1041;-22
2021/12/04 02:52:25;;;;;;;;;;;;;;;;;;1008669;29;1190;-22
2021/12/04 02:52:56;;;;;;;;;;;;;;;;;;1001337;29;1100;-22
2021/12/04 02:53:26;;;;;;;;;;;;;;;;;;1001420;29;961;-22
2021/12/04 02:53:57;;;;;;;;;;;;;;;;;;1001182;29;1330;-22
2021/12/04 02:54:29;;;;;;;;;;;;;;;;;;997322;29;1039;-22
2021/12/04 02:55:00;;;;;;;;;;;;;;;;;;998032;29;1049;-22
2021/12/04 02:55:31;;;;;;;;;;;;;;;;;;1001279;29;1127;-22
2021/12/04 02:56:02;;;;;;;;;;;;;;;;;;997932;29;994;-22
2021/12/04 02:56:32;;;;;;;;;;;;;;;;;;997641;29;1215;-22
2021/12/04 02:57:04;;;;;;;;;;;;;;;;;;1001694;29;964;-22
2021/12/04 02:57:39;;;;;;;;;;;;;;;;;;1002268;29;1016;-22
2021/12/04 02:58:13;;;;;;;;;;;;;;;;;;1005494;29;1630;-21
2021/12/04 02:58:50;;;;;;;;;;;;;;;;;;1001211;29;1301;-22
2021/12/04 02:59:21;;;;;;;;;;;;;;;;;;1001208;29;1313;-21
2021/12/04 02:59:53;;;;;;;;;;;;;;;;;;1005362;29;1042;-22
2021/12/04 03:00:24;;;;;;;;;;;;;;;;;;1002989;29;1502;-22
2021/12/04 03:00:55;;;;;;;;;;;;;;;;;;1005340;29;974;-22
2021/12/04 03:01:25;;;;;;;;;;;;;;;;;;1001723;29;1907;-22
2021/12/04 03:01:57;;;;;;;;;;;;;;;;;;1005391;29;1423;-21
2021/12/04 03:02:27;;;;;;;;;;;;;;;;;;1008959;29;1111;-21
2021/12/04 03:02:58;;;;;;;;;;;;;;;;;;1009687;29;963;-21
2021/12/04 03:03:31;;;;;;;;;;;;;;;;;;1012856;29;1323;-22
2021/12/04 03:04:11;;;;;;;;;;;;;;;;;;1004876;29;1165;-22
2021/12/04 03:04:42;;;;;;;;;;;;;;;;;;1004552;29;1303;-21
2021/12/04 03:05:13;;;;;;;;;;;;;;;;;;1001524;29;1026;-22
2021/12/04 03:05:47;;;;;;;;;;;;;;;;;;1004688;29;1022;-21
2021/12/04 03:06:18;;;;;;;;;;;;;;;;;;1005038;29;1050;-22
2021/12/04 03:06:49;;;;;;;;;;;;;;;;;;1009892;29;960;-21
2021/12/04 03:07:20;;;;;;;;;;;;;;;;;;1012588;29;1719;-22
2021/12/04 03:07:52;;;;;;;;;;;;;;;;;;1013050;29;980;-22
2021/12/04 03:08:23;;;;;;;;;;;;;;;;;;1012801;29;1298;-21
2021/12/04 03:08:53;;;;;;;;;;;;;;;;;;1005156;29;1022;-22
2021/12/04 03:09:25;;;;;;;;;;;;;;;;;;1001335;29;1094;-21
2021/12/04 03:09:55;;;;;;;;;;;;;;;;;;1001209;29;1022;-22
2021/12/04 03:10:26;;;;;;;;;;;;;;;;;;1001512;29;984;-22
2021/12/04 03:10:57;;;;;;;;;;;;;;;;;;1001304;29;1240;-21
2021/12/04 03:11:27;;;;;;;;;;;;;;;;;;997324;29;1092;-22
2021/12/04 03:12:01;;;;;;;;;;;;;;;;;;997448;29;1014;-22
2021/12/04 03:12:31;;;;;;;;;;;;;;;;;;989819;29;1448;-22
2021/12/04 03:13:04;;;;;;;;;;;;;;;;;;991140;29;1109;-21
2021/12/04 03:13:35;;;;;;;;;;;;;;;;;;1002207;29;932;-22
2021/12/04 03:14:06;;;;;;;;;;;;;;;;;;1005306;29;1286;-22
2021/12/04 03:14:37;;;;;;;;;;;;;;;;;;1016819;29;1102;-21
2021/12/04 03:15:08;;;;;;;;;;;;;;;;;;1016435;29;1446;-22
2021/12/04 03:15:43;;;;;;;;;;;;;;;;;;1008872;29;1132;-22
2021/12/04 03:16:13;;;;;;;;;;;;;;;;;;1008561;29;1005;-22
2021/12/04 03:16:44;;;;;;;;;;;;;;;;;;1003784;29;1435;-22
2021/12/04 03:17:18;;;;;;;;;;;;;;;;;;998633;29;1479;-23
2021/12/04 03:17:49;;;;;;;;;;;;;;;;;;1001057;29;1470;-22
2021/12/04 03:18:20;;;;;;;;;;;;;;;;;;998024;29;1263;-21
2021/12/04 03:18:51;;;;;;;;;;;;;;;;;;993923;29;1015;-21
2021/12/04 03:19:21;;;;;;;;;;;;;;;;;;993559;29;1371;-21
2021/12/04 03:19:53;;;;;;;;;;;;;;;;;;994017;29;1057;-22
2021/12/04 03:20:24;;;;;;;;;;;;;;;;;;1001054;29;1393;-21
2021/12/04 03:20:56;;;;;;;;;;;;;;;;;;1001334;29;1274;-21
2021/12/04 03:21:26;;;;;;;;;;;;;;;;;;1001929;29;1911;-22
2021/12/04 03:21:57;;;;;;;;;;;;;;;;;;1005615;29;960;-21
2021/12/04 03:22:27;;;;;;;;;;;;;;;;;;1017141;29;1006;-22
2021/12/04 03:23:01;;;;;;;;;;;;;;;;;;1012715;29;1293;-22
2021/12/04 03:23:40;;;;;;;;;;;;;;;;;;1001186;29;1114;-22
2021/12/04 03:24:14;;;;;;;;;;;;;;;;;;1000231;29;1060;-21
2021/12/04 03:24:44;;;;;;;;;;;;;;;;;;991155;29;1128;-22
2021/12/04 03:25:19;;;;;;;;;;;;;;;;;;998929;29;1343;-22
2021/12/04 03:25:52;;;;;;;;;;;;;;;;;;1001245;29;1022;-22
2021/12/04 03:26:23;;;;;;;;;;;;;;;;;;999645;29;1187;-22
2021/12/04 03:26:55;;;;;;;;;;;;;;;;;;1000935;29;1481;-21
2021/12/04 03:27:29;;;;;;;;;;;;;;;;;;994493;29;1119;-22
2021/12/04 03:28:04;;;;;;;;;;;;;;;;;;997675;29;1772;-22
2021/12/04 03:28:35;;;;;;;;;;;;;;;;;;996940;29;1320;-21
2021/12/04 03:29:13;;;;;;;;;;;;;;;;;;999548;29;1189;-22
2021/12/04 03:29:49;;;;;;;;;;;;;;;;;;1002350;29;1469;-22
2021/12/04 03:30:35;;;;;;;;;;;;;;;;;;1005016;29;1399;-21
2021/12/04 03:31:14;;;;;;;;;;;;;;;;;;996559;29;1032;-22
2021/12/04 03:35:14;;;;;;;;;;;;;;;;;;1000937;29;2071;-22
2021/12/04 03:41:20;;;;;;;;;;;;;;;;;;993416;29;1110;-22
2021/12/04 03:41:51;;;;;;;;;;;;;;;;;;993560;29;1975;-22
2021/12/04 03:42:21;;;;;;;;;;;;;;;;;;993738;29;1079;-21
2021/12/04 03:42:53;;;;;;;;;;;;;;;;;;993693;29;1049;-22
2021/12/04 03:43:24;;;;;;;;;;;;;;;;;;993667;29;1047;-21
2021/12/04 03:43:54;;;;;;;;;;;;;;;;;;994012;29;875;-24
2021/12/04 03:44:26;;;;;;;;;;;;;;;;;;989735;29;1372;-22
2021/12/04 03:44:57;;;;;;;;;;;;;;;;;;993320;29;1038;-22
2021/12/04 03:45:28;;;;;;;;;;;;;;;;;;990122;29;1012;-22
2021/12/04 03:46:03;;;;;;;;;;;;;;;;;;981964;29;1375;-22
2021/12/04 03:46:33;;;;;;;;;;;;;;;;;;986604;29;1045;-22
2021/12/04 03:47:04;;;;;;;;;;;;;;;;;;989965;29;1307;-22
2021/12/04 03:47:39;;;;;;;;;;;;;;;;;;991389;29;1071;-22
2021/12/04 03:48:28;;;;;;;;;;;;;;;;;;1000656;29;1331;-21
2021/12/04 03:48:59;;;;;;;;;;;;;;;;;;1004775;29;1043;-22
2021/12/04 03:49:30;;;;;;;;;;;;;;;;;;1004020;29;1253;-22
2021/12/04 03:50:01;;;;;;;;;;;;;;;;;;997322;29;1242;-21
2021/12/04 03:50:31;;;;;;;;;;;;;;;;;;997563;29;1080;-22
2021/12/04 03:51:04;;;;;;;;;;;;;;;;;;1001349;29;1252;-21
2021/12/04 03:51:35;;;;;;;;;;;;;;;;;;1001606;29;1376;-21
2021/12/04 03:52:06;;;;;;;;;;;;;;;;;;1008833;29;1185;-23
2021/12/04 03:52:37;;;;;;;;;;;;;;;;;;1004447;29;1306;-24
2021/12/04 03:53:07;;;;;;;;;;;;;;;;;;1001623;29;945;-22
2021/12/04 03:53:38;;;;;;;;;;;;;;;;;;1000849;29;1245;-22
2021/12/04 03:54:09;;;;;;;;;;;;;;;;;;1001127;29;990;-22
2021/12/04 03:54:39;;;;;;;;;;;;;;;;;;1001636;29;1228;-22
2021/12/04 03:55:10;;;;;;;;;;;;;;;;;;1004393;29;1103;-22
2021/12/04 03:55:40;;;;;;;;;;;;;;;;;;1009907;29;962;-23
2021/12/04 03:56:12;;;;;;;;;;;;;;;;;;1009297;29;1299;-21
2021/12/04 03:56:43;;;;;;;;;;;;;;;;;;1009682;29;1193;-21
2021/12/04 03:57:15;;;;;;;;;;;;;;;;;;1008310;29;1493;-21
2021/12/04 03:57:46;;;;;;;;;;;;;;;;;;1004602;29;1300;-22
2021/12/04 03:58:17;;;;;;;;;;;;;;;;;;1005037;29;1107;-22
2021/12/04 03:58:48;;;;;;;;;;;;;;;;;;1004696;29;1375;-22
2021/12/04 03:59:20;;;;;;;;;;;;;;;;;;996993;29;1131;-22
2021/12/04 03:59:51;;;;;;;;;;;;;;;;;;997930;29;1067;-22
2021/12/04 04:00:23;;;;;;;;;;;;;;;;;;997190;29;1881;-22
2021/12/04 04:00:54;;;;;;;;;;;;;;;;;;997661;29;916;-21
2021/12/04 04:01:24;;;;;;;;;;;;;;;;;;993580;29;1927;-21
2021/12/04 04:01:54;;;;;;;;;;;;;;;;;;994249;29;1390;-22
2021/12/04 04:02:26;;;;;;;;;;;;;;;;;;1001293;29;1063;-22
2021/12/04 04:02:58;;;;;;;;;;;;;;;;;;997706;29;1234;-22